Hawkesbury, Canada
Current Conditions -  °F | °C
As of 12:00 AM on Sunday 26 Oct 2014 (Local Time) from CYMX Reporting Station
Overcast Overcast  
Wind Chill: 46°   Ceiling: 5000
Heat Index: 48°   Visibility: 20mi
Dew Point: 46°   Wind: 6mph
Humidity: 93%   Direction: 240°WSW
Pressure: 29.41"   Gusts: NA
Location:  45.61°N, 74.61°W
Report Text: CYMX 260400Z 24005KT 190V280 20SM FEW008 FEW015 FEW035 BKN050 OVC110 09/08 A2941 RMK SF1SC1SC1SC4AC2 SF TR SLP960
Loading
Personal Weather Stations






























Interactive Weather Map
Tropical Storm Tracking
New forecast layout! Learn more

10-Day Weather Forecast

Advertisements
Track Severe Weather on mobile